sensor_id;sensor_type;location;lat;lon;timestamp;temperature;humidity
15450;DHT22;7826;49.784;9.934;2023-01-08T00:02:24;4.70;1.00
15450;DHT22;7826;49.784;9.934;2023-01-08T00:04:50;4.70;1.00
15450;DHT22;7826;49.784;9.934;2023-01-08T00:07:17;4.80;1.00
15450;DHT22;7826;49.784;9.934;2023-01-08T00:09:44;4.80;1.00
15450;DHT22;7826;49.784;9.934;2023-01-08T00:12:10;4.90;1.00
15450;DHT22;7826;49.784;9.934;2023-01-08T00:14:37;5.10;1.00
15450;DHT22;7826;49.784;9.934;2023-01-08T00:17:03;5.20;1.00
15450;DHT22;7826;49.784;9.934;2023-01-08T00:19:30;5.20;1.00
15450;DHT22;7826;49.784;9.934;2023-01-08T00:21:57;5.20;1.00
15450;DHT22;7826;49.784;9.934;2023-01-08T00:24:23;5.10;1.00
15450;DHT22;7826;49.784;9.934;2023-01-08T00:26:50;5.20;1.00
15450;DHT22;7826;49.784;9.934;2023-01-08T00:29:17;5.20;99.90
15450;DHT22;7826;49.784;9.934;2023-01-08T00:31:44;5.10;99.90
15450;DHT22;7826;49.784;9.934;2023-01-08T00:34:11;5.10;99.90
15450;DHT22;7826;49.784;9.934;2023-01-08T00:36:38;5.40;99.90
15450;DHT22;7826;49.784;9.934;2023-01-08T00:39:07;5.10;99.90
15450;DHT22;7826;49.784;9.934;2023-01-08T00:41:33;5.10;99.90
15450;DHT22;7826;49.784;9.934;2023-01-08T00:44:00;4.90;99.90
15450;DHT22;7826;49.784;9.934;2023-01-08T00:46:26;5.10;99.90
15450;DHT22;7826;49.784;9.934;2023-01-08T00:48:53;5.10;99.90
15450;DHT22;7826;49.784;9.934;2023-01-08T00:51:20;5.10;99.90
15450;DHT22;7826;49.784;9.934;2023-01-08T00:53:46;5.20;99.90
15450;DHT22;7826;49.784;9.934;2023-01-08T00:56:13;5.20;99.90
15450;DHT22;7826;49.784;9.934;2023-01-08T00:58:39;5.50;87.40
15450;DHT22;7826;49.784;9.934;2023-01-08T01:01:09;5.20;93.30
15450;DHT22;7826;49.784;9.934;2023-01-08T01:07:17;5.20;44.20
15450;DHT22;7826;49.784;9.934;2023-01-08T01:09:44;5.20;1.00
15450;DHT22;7826;49.784;9.934;2023-01-08T01:12:11;5.20;12.00
15450;DHT22;7826;49.784;9.934;2023-01-08T01:14:37;5.10;6.20
15450;DHT22;7826;49.784;9.934;2023-01-08T01:17:04;5.10;11.50
15450;DHT22;7826;49.784;9.934;2023-01-08T01:19:30;5.10;8.30
15450;DHT22;7826;49.784;9.934;2023-01-08T01:21:56;5.10;1.00
15450;DHT22;7826;49.784;9.934;2023-01-08T01:24:22;5.00;1.00
15450;DHT22;7826;49.784;9.934;2023-01-08T01:26:50;5.10;10.60
15450;DHT22;7826;49.784;9.934;2023-01-08T01:29:17;5.00;34.30
15450;DHT22;7826;49.784;9.934;2023-01-08T01:31:43;5.00;48.60
15450;DHT22;7826;49.784;9.934;2023-01-08T01:34:09;5.00;67.40
15450;DHT22;7826;49.784;9.934;2023-01-08T01:36:36;5.10;99.90
15450;DHT22;7826;49.784;9.934;2023-01-08T01:39:03;5.10;99.60
15450;DHT22;7826;49.784;9.934;2023-01-08T01:41:36;5.20;85.90
15450;DHT22;7826;49.784;9.934;2023-01-08T01:44:34;5.20;37.70
15450;DHT22;7826;49.784;9.934;2023-01-08T01:50:04;5.30;1.00
15450;DHT22;7826;49.784;9.934;2023-01-08T01:52:45;5.30;1.00
15450;DHT22;7826;49.784;9.934;2023-01-08T01:55:15;5.30;1.00
15450;DHT22;7826;49.784;9.934;2023-01-08T01:57:49;5.30;1.00
15450;DHT22;7826;49.784;9.934;2023-01-08T02:00:18;5.30;1.00
15450;DHT22;7826;49.784;9.934;2023-01-08T02:02:44;5.30;1.00
15450;DHT22;7826;49.784;9.934;2023-01-08T02:05:11;5.30;1.00
15450;DHT22;7826;49.784;9.934;2023-01-08T02:07:55;5.30;1.00
15450;DHT22;7826;49.784;9.934;2023-01-08T02:10:36;5.30;1.00
15450;DHT22;7826;49.784;9.934;2023-01-08T02:13:10;5.40;1.00
15450;DHT22;7826;49.784;9.934;2023-01-08T02:16:07;5.40;1.00
15450;DHT22;7826;49.784;9.934;2023-01-08T02:19:05;5.40;1.00
15450;DHT22;7826;49.784;9.934;2023-01-08T02:22:10;5.40;1.00
15450;DHT22;7826;49.784;9.934;2023-01-08T02:24:55;5.50;1.00
15450;DHT22;7826;49.784;9.934;2023-01-08T02:27:28;5.50;1.00
15450;DHT22;7826;49.784;9.934;2023-01-08T02:29:56;5.50;1.00
15450;DHT22;7826;49.784;9.934;2023-01-08T02:32:27;5.60;1.00
15450;DHT22;7826;49.784;9.934;2023-01-08T02:34:54;5.60;1.00
15450;DHT22;7826;49.784;9.934;2023-01-08T02:37:20;5.60;1.00
15450;DHT22;7826;49.784;9.934;2023-01-08T02:40:10;5.60;1.00
15450;DHT22;7826;49.784;9.934;2023-01-08T02:43:00;5.70;1.00
15450;DHT22;7826;49.784;9.934;2023-01-08T02:45:46;5.70;1.00
15450;DHT22;7826;49.784;9.934;2023-01-08T02:48:35;5.70;1.00
15450;DHT22;7826;49.784;9.934;2023-01-08T02:53:44;5.80;1.00
15450;DHT22;7826;49.784;9.934;2023-01-08T02:56:15;5.80;1.00
15450;DHT22;7826;49.784;9.934;2023-01-08T02:58:43;5.70;1.00
15450;DHT22;7826;49.784;9.934;2023-01-08T03:01:15;5.70;1.00
15450;DHT22;7826;49.784;9.934;2023-01-08T03:03:44;5.80;1.00
15450;DHT22;7826;49.784;9.934;2023-01-08T03:06:14;5.80;1.00
15450;DHT22;7826;49.784;9.934;2023-01-08T03:08:42;5.80;1.00
15450;DHT22;7826;49.784;9.934;2023-01-08T03:11:12;5.80;1.00
15450;DHT22;7826;49.784;9.934;2023-01-08T03:13:46;5.80;1.00
15450;DHT22;7826;49.784;9.934;2023-01-08T03:16:20;5.80;1.00
15450;DHT22;7826;49.784;9.934;2023-01-08T03:18:57;5.80;1.00
15450;DHT22;7826;49.784;9.934;2023-01-08T03:21:24;5.90;1.00
15450;DHT22;7826;49.784;9.934;2023-01-08T03:23:51;5.90;1.00
15450;DHT22;7826;49.784;9.934;2023-01-08T03:26:21;5.90;1.00
15450;DHT22;7826;49.784;9.934;2023-01-08T03:28:52;5.90;1.00
15450;DHT22;7826;49.784;9.934;2023-01-08T03:31:19;5.90;1.00
15450;DHT22;7826;49.784;9.934;2023-01-08T03:33:48;5.90;1.00
15450;DHT22;7826;49.784;9.934;2023-01-08T03:36:17;6.00;1.00
15450;DHT22;7826;49.784;9.934;2023-01-08T03:38:51;6.00;1.00
15450;DHT22;7826;49.784;9.934;2023-01-08T03:41:20;6.00;1.00
15450;DHT22;7826;49.784;9.934;2023-01-08T03:43:47;6.00;1.00
15450;DHT22;7826;49.784;9.934;2023-01-08T03:46:23;6.10;1.00
15450;DHT22;7826;49.784;9.934;2023-01-08T03:48:51;6.10;1.00
15450;DHT22;7826;49.784;9.934;2023-01-08T03:51:18;6.10;1.00
15450;DHT22;7826;49.784;9.934;2023-01-08T03:53:45;6.10;1.00
15450;DHT22;7826;49.784;9.934;2023-01-08T03:56:12;6.10;1.00
15450;DHT22;7826;49.784;9.934;2023-01-08T03:58:38;6.10;1.00
15450;DHT22;7826;49.784;9.934;2023-01-08T04:01:05;6.10;1.00
15450;DHT22;7826;49.784;9.934;2023-01-08T04:03:31;6.10;1.00
15450;DHT22;7826;49.784;9.934;2023-01-08T04:06:00;6.10;1.00
15450;DHT22;7826;49.784;9.934;2023-01-08T04:08:27;6.10;1.00
15450;DHT22;7826;49.784;9.934;2023-01-08T04:10:53;6.10;1.00
15450;DHT22;7826;49.784;9.934;2023-01-08T04:13:19;6.10;1.00
15450;DHT22;7826;49.784;9.934;2023-01-08T04:16:04;6.10;1.00
15450;DHT22;7826;49.784;9.934;2023-01-08T04:18:31;6.10;1.00
15450;DHT22;7826;49.784;9.934;2023-01-08T04:20:57;6.10;1.00
15450;DHT22;7826;49.784;9.934;2023-01-08T04:23:23;6.10;1.00
15450;DHT22;7826;49.784;9.934;2023-01-08T04:25:49;6.10;1.00
15450;DHT22;7826;49.784;9.934;2023-01-08T04:28:16;6.10;1.00
15450;DHT22;7826;49.784;9.934;2023-01-08T04:30:42;6.10;1.00
15450;DHT22;7826;49.784;9.934;2023-01-08T04:33:08;6.10;1.00
15450;DHT22;7826;49.784;9.934;2023-01-08T04:35:35;6.10;1.00
15450;DHT22;7826;49.784;9.934;2023-01-08T04:38:01;6.20;1.00
15450;DHT22;7826;49.784;9.934;2023-01-08T04:40:28;6.20;99.90
15450;DHT22;7826;49.784;9.934;2023-01-08T04:42:54;6.20;99.90
15450;DHT22;7826;49.784;9.934;2023-01-08T04:45:20;6.20;99.90
15450;DHT22;7826;49.784;9.934;2023-01-08T04:47:47;6.20;99.90
15450;DHT22;7826;49.784;9.934;2023-01-08T04:50:13;6.20;99.90
15450;DHT22;7826;49.784;9.934;2023-01-08T04:52:39;6.20;99.90
15450;DHT22;7826;49.784;9.934;2023-01-08T04:55:06;6.30;99.90
15450;DHT22;7826;49.784;9.934;2023-01-08T04:57:32;6.30;99.90
15450;DHT22;7826;49.784;9.934;2023-01-08T04:59:58;6.30;99.90
15450;DHT22;7826;49.784;9.934;2023-01-08T05:02:25;6.30;99.90
15450;DHT22;7826;49.784;9.934;2023-01-08T05:04:51;6.30;99.90
15450;DHT22;7826;49.784;9.934;2023-01-08T05:07:17;6.30;99.90
15450;DHT22;7826;49.784;9.934;2023-01-08T05:09:43;6.30;99.90
15450;DHT22;7826;49.784;9.934;2023-01-08T05:12:10;6.30;99.90
15450;DHT22;7826;49.784;9.934;2023-01-08T05:14:36;6.30;99.90
15450;DHT22;7826;49.784;9.934;2023-01-08T05:17:02;6.30;99.90
15450;DHT22;7826;49.784;9.934;2023-01-08T05:19:28;6.30;99.90
15450;DHT22;7826;49.784;9.934;2023-01-08T05:21:55;6.30;99.90
15450;DHT22;7826;49.784;9.934;2023-01-08T05:24:21;6.30;99.90
15450;DHT22;7826;49.784;9.934;2023-01-08T05:26:47;6.30;99.90
15450;DHT22;7826;49.784;9.934;2023-01-08T05:29:15;6.30;99.90
15450;DHT22;7826;49.784;9.934;2023-01-08T05:31:42;6.30;99.90
15450;DHT22;7826;49.784;9.934;2023-01-08T05:34:08;6.30;99.90
15450;DHT22;7826;49.784;9.934;2023-01-08T05:36:34;6.30;99.90
15450;DHT22;7826;49.784;9.934;2023-01-08T05:39:01;6.30;99.90
15450;DHT22;7826;49.784;9.934;2023-01-08T05:41:27;6.30;99.90
15450;DHT22;7826;49.784;9.934;2023-01-08T05:43:53;6.30;99.90
15450;DHT22;7826;49.784;9.934;2023-01-08T05:46:19;6.30;99.90
15450;DHT22;7826;49.784;9.934;2023-01-08T05:48:46;6.40;99.90
15450;DHT22;7826;49.784;9.934;2023-01-08T05:51:12;6.40;99.90
15450;DHT22;7826;49.784;9.934;2023-01-08T05:53:38;6.40;99.90
15450;DHT22;7826;49.784;9.934;2023-01-08T05:56:07;6.40;99.90
15450;DHT22;7826;49.784;9.934;2023-01-08T05:58:35;6.40;99.90
15450;DHT22;7826;49.784;9.934;2023-01-08T06:01:04;6.40;99.90
15450;DHT22;7826;49.784;9.934;2023-01-08T06:03:31;6.40;99.90
15450;DHT22;7826;49.784;9.934;2023-01-08T06:06:02;6.30;99.90
15450;DHT22;7826;49.784;9.934;2023-01-08T06:08:29;6.30;99.90
15450;DHT22;7826;49.784;9.934;2023-01-08T06:11:00;6.30;99.90
15450;DHT22;7826;49.784;9.934;2023-01-08T06:13:27;6.30;99.90
15450;DHT22;7826;49.784;9.934;2023-01-08T06:15:54;6.30;99.90
15450;DHT22;7826;49.784;9.934;2023-01-08T06:18:20;6.30;1.00
15450;DHT22;7826;49.784;9.934;2023-01-08T06:20:46;6.30;1.00
15450;DHT22;7826;49.784;9.934;2023-01-08T06:23:13;6.40;1.00
15450;DHT22;7826;49.784;9.934;2023-01-08T06:25:39;6.30;1.00
15450;DHT22;7826;49.784;9.934;2023-01-08T06:28:05;6.40;1.00
15450;DHT22;7826;49.784;9.934;2023-01-08T06:30:32;6.30;1.00
15450;DHT22;7826;49.784;9.934;2023-01-08T06:32:59;6.30;1.00
15450;DHT22;7826;49.784;9.934;2023-01-08T06:35:26;6.30;1.00
15450;DHT22;7826;49.784;9.934;2023-01-08T06:37:55;6.30;1.00
15450;DHT22;7826;49.784;9.934;2023-01-08T06:40:23;6.30;1.00
15450;DHT22;7826;49.784;9.934;2023-01-08T06:42:49;6.30;1.00
15450;DHT22;7826;49.784;9.934;2023-01-08T06:45:15;6.30;1.00
15450;DHT22;7826;49.784;9.934;2023-01-08T06:47:42;6.30;1.00
15450;DHT22;7826;49.784;9.934;2023-01-08T06:50:08;6.30;1.00
15450;DHT22;7826;49.784;9.934;2023-01-08T06:52:35;6.30;1.00
15450;DHT22;7826;49.784;9.934;2023-01-08T06:55:01;6.30;1.00
15450;DHT22;7826;49.784;9.934;2023-01-08T06:57:27;6.30;1.00
15450;DHT22;7826;49.784;9.934;2023-01-08T06:59:53;6.30;1.00
15450;DHT22;7826;49.784;9.934;2023-01-08T07:02:20;6.30;1.00
15450;DHT22;7826;49.784;9.934;2023-01-08T07:04:46;6.30;1.00
15450;DHT22;7826;49.784;9.934;2023-01-08T07:07:13;6.30;1.00
15450;DHT22;7826;49.784;9.934;2023-01-08T07:09:43;6.30;1.00
15450;DHT22;7826;49.784;9.934;2023-01-08T07:12:13;6.30;1.00
15450;DHT22;7826;49.784;9.934;2023-01-08T07:14:39;6.30;1.00
15450;DHT22;7826;49.784;9.934;2023-01-08T07:17:06;6.30;1.00
15450;DHT22;7826;49.784;9.934;2023-01-08T07:19:33;6.30;1.00
15450;DHT22;7826;49.784;9.934;2023-01-08T07:21:59;6.30;1.00
15450;DHT22;7826;49.784;9.934;2023-01-08T07:24:25;6.30;1.00
15450;DHT22;7826;49.784;9.934;2023-01-08T07:26:52;6.30;1.00
15450;DHT22;7826;49.784;9.934;2023-01-08T07:29:18;6.30;1.00
15450;DHT22;7826;49.784;9.934;2023-01-08T07:31:44;6.30;1.00
15450;DHT22;7826;49.784;9.934;2023-01-08T07:34:10;6.30;1.00
15450;DHT22;7826;49.784;9.934;2023-01-08T07:36:37;6.30;1.00
15450;DHT22;7826;49.784;9.934;2023-01-08T07:39:03;6.30;1.00
15450;DHT22;7826;49.784;9.934;2023-01-08T07:41:29;6.40;1.00
15450;DHT22;7826;49.784;9.934;2023-01-08T07:43:56;6.40;1.00
15450;DHT22;7826;49.784;9.934;2023-01-08T07:46:22;6.40;1.00
15450;DHT22;7826;49.784;9.934;2023-01-08T07:48:48;6.40;1.00
15450;DHT22;7826;49.784;9.934;2023-01-08T07:51:15;6.50;1.00
15450;DHT22;7826;49.784;9.934;2023-01-08T07:53:42;6.50;1.00
15450;DHT22;7826;49.784;9.934;2023-01-08T07:56:09;6.50;1.00
15450;DHT22;7826;49.784;9.934;2023-01-08T07:58:36;6.50;1.00
15450;DHT22;7826;49.784;9.934;2023-01-08T08:01:06;6.60;1.00
15450;DHT22;7826;49.784;9.934;2023-01-08T08:03:33;6.60;1.00
15450;DHT22;7826;49.784;9.934;2023-01-08T08:05:59;6.60;1.00
15450;DHT22;7826;49.784;9.934;2023-01-08T08:08:26;6.60;1.00
15450;DHT22;7826;49.784;9.934;2023-01-08T08:10:52;6.60;1.00
15450;DHT22;7826;49.784;9.934;2023-01-08T08:13:18;6.70;1.00
15450;DHT22;7826;49.784;9.934;2023-01-08T08:15:45;6.70;1.00
15450;DHT22;7826;49.784;9.934;2023-01-08T08:18:12;6.70;1.00
15450;DHT22;7826;49.784;9.934;2023-01-08T08:20:38;6.70;1.00
15450;DHT22;7826;49.784;9.934;2023-01-08T08:23:07;6.80;1.00
15450;DHT22;7826;49.784;9.934;2023-01-08T08:25:35;6.80;1.00
15450;DHT22;7826;49.784;9.934;2023-01-08T08:28:02;6.80;1.00
15450;DHT22;7826;49.784;9.934;2023-01-08T08:30:30;6.90;1.00
15450;DHT22;7826;49.784;9.934;2023-01-08T08:32:58;6.90;1.00
15450;DHT22;7826;49.784;9.934;2023-01-08T08:35:26;6.90;1.00
15450;DHT22;7826;49.784;9.934;2023-01-08T08:37:53;7.00;1.00
15450;DHT22;7826;49.784;9.934;2023-01-08T08:40:20;7.00;1.00
15450;DHT22;7826;49.784;9.934;2023-01-08T08:42:47;7.00;1.00
15450;DHT22;7826;49.784;9.934;2023-01-08T08:45:14;7.10;1.00
15450;DHT22;7826;49.784;9.934;2023-01-08T08:47:40;7.10;1.00
15450;DHT22;7826;49.784;9.934;2023-01-08T08:50:06;7.10;1.00
15450;DHT22;7826;49.784;9.934;2023-01-08T08:52:33;7.10;1.00
15450;DHT22;7826;49.784;9.934;2023-01-08T08:55:00;7.20;1.00
15450;DHT22;7826;49.784;9.934;2023-01-08T08:57:26;7.30;1.00
15450;DHT22;7826;49.784;9.934;2023-01-08T08:59:52;7.30;1.00
15450;DHT22;7826;49.784;9.934;2023-01-08T09:02:19;7.40;1.00
15450;DHT22;7826;49.784;9.934;2023-01-08T09:04:46;7.40;1.00
15450;DHT22;7826;49.784;9.934;2023-01-08T09:07:14;7.50;10.80
15450;DHT22;7826;49.784;9.934;2023-01-08T09:09:42;7.50;19.10
15450;DHT22;7826;49.784;9.934;2023-01-08T09:12:12;7.50;27.50
15450;DHT22;7826;49.784;9.934;2023-01-08T09:14:38;7.60;45.20
15450;DHT22;7826;49.784;9.934;2023-01-08T09:17:04;7.60;84.20
15450;DHT22;7826;49.784;9.934;2023-01-08T09:19:31;7.60;99.90
15450;DHT22;7826;49.784;9.934;2023-01-08T09:21:57;7.70;99.90
15450;DHT22;7826;49.784;9.934;2023-01-08T09:24:23;7.70;99.90
15450;DHT22;7826;49.784;9.934;2023-01-08T09:26:52;7.70;99.90
15450;DHT22;7826;49.784;9.934;2023-01-08T09:29:20;7.80;1.00
15450;DHT22;7826;49.784;9.934;2023-01-08T09:31:46;7.80;1.00
15450;DHT22;7826;49.784;9.934;2023-01-08T09:34:12;7.80;1.00
15450;DHT22;7826;49.784;9.934;2023-01-08T09:36:39;7.80;1.00
15450;DHT22;7826;49.784;9.934;2023-01-08T09:39:05;7.90;1.00
15450;DHT22;7826;49.784;9.934;2023-01-08T09:41:33;7.90;99.90
15450;DHT22;7826;49.784;9.934;2023-01-08T09:44:03;7.90;99.90
15450;DHT22;7826;49.784;9.934;2023-01-08T09:46:31;8.00;1.00
15450;DHT22;7826;49.784;9.934;2023-01-08T09:49:04;8.00;1.00
15450;DHT22;7826;49.784;9.934;2023-01-08T09:51:34;8.10;1.00
15450;DHT22;7826;49.784;9.934;2023-01-08T09:54:01;8.10;1.00
15450;DHT22;7826;49.784;9.934;2023-01-08T09:56:29;8.20;1.00
15450;DHT22;7826;49.784;9.934;2023-01-08T09:58:58;8.20;1.00
15450;DHT22;7826;49.784;9.934;2023-01-08T10:01:27;8.20;1.00
15450;DHT22;7826;49.784;9.934;2023-01-08T10:04:21;8.30;1.00
15450;DHT22;7826;49.784;9.934;2023-01-08T10:07:27;8.30;1.00
15450;DHT22;7826;49.784;9.934;2023-01-08T10:09:51;8.50;1.00
15450;DHT22;7826;49.784;9.934;2023-01-08T10:14:49;8.40;1.00
15450;DHT22;7826;49.784;9.934;2023-01-08T10:19:54;8.40;1.00
15450;DHT22;7826;49.784;9.934;2023-01-08T10:22:22;8.40;1.00
15450;DHT22;7826;49.784;9.934;2023-01-08T10:24:50;8.40;99.90
15450;DHT22;7826;49.784;9.934;2023-01-08T10:27:21;8.40;99.90
15450;DHT22;7826;49.784;9.934;2023-01-08T10:29:51;8.40;1.00
15450;DHT22;7826;49.784;9.934;2023-01-08T10:32:27;8.40;1.00
15450;DHT22;7826;49.784;9.934;2023-01-08T10:34:58;8.40;99.90
15450;DHT22;7826;49.784;9.934;2023-01-08T10:37:38;8.50;99.90
15450;DHT22;7826;49.784;9.934;2023-01-08T10:40:39;8.50;99.90
15450;DHT22;7826;49.784;9.934;2023-01-08T10:43:13;8.40;99.90
15450;DHT22;7826;49.784;9.934;2023-01-08T10:45:41;8.40;99.90
15450;DHT22;7826;49.784;9.934;2023-01-08T10:48:16;8.50;99.90
15450;DHT22;7826;49.784;9.934;2023-01-08T10:50:42;8.50;99.90
15450;DHT22;7826;49.784;9.934;2023-01-08T10:53:27;8.50;99.90
15450;DHT22;7826;49.784;9.934;2023-01-08T10:55:58;8.50;99.90
15450;DHT22;7826;49.784;9.934;2023-01-08T10:58:27;8.50;99.90
15450;DHT22;7826;49.784;9.934;2023-01-08T11:00:53;8.50;99.90
15450;DHT22;7826;49.784;9.934;2023-01-08T11:03:27;8.50;12.90
15450;DHT22;7826;49.784;9.934;2023-01-08T11:05:54;8.50;22.00
15450;DHT22;7826;49.784;9.934;2023-01-08T11:08:21;8.60;72.40
15450;DHT22;7826;49.784;9.934;2023-01-08T11:10:55;8.60;44.20
15450;DHT22;7826;49.784;9.934;2023-01-08T11:13:22;8.60;57.00
15450;DHT22;7826;49.784;9.934;2023-01-08T11:16:05;8.60;97.10
15450;DHT22;7826;49.784;9.934;2023-01-08T11:18:46;8.70;99.90
15450;DHT22;7826;49.784;9.934;2023-01-08T11:21:19;8.70;1.00
15450;DHT22;7826;49.784;9.934;2023-01-08T11:23:58;8.70;1.00
15450;DHT22;7826;49.784;9.934;2023-01-08T11:26:25;8.70;1.00
15450;DHT22;7826;49.784;9.934;2023-01-08T11:31:48;8.70;1.00
15450;DHT22;7826;49.784;9.934;2023-01-08T11:35:03;8.80;34.40
15450;DHT22;7826;49.784;9.934;2023-01-08T11:37:28;8.80;99.90
15450;DHT22;7826;49.784;9.934;2023-01-08T11:39:56;8.90;1.00
15450;DHT22;7826;49.784;9.934;2023-01-08T11:50:53;9.00;99.90
15450;DHT22;7826;49.784;9.934;2023-01-08T12:09:44;9.30;99.90
15450;DHT22;7826;49.784;9.934;2023-01-08T12:15:19;9.30;6.20
15450;DHT22;7826;49.784;9.934;2023-01-08T12:18:07;9.50;1.00
15450;DHT22;7826;49.784;9.934;2023-01-08T12:20:47;9.60;1.00
15450;DHT22;7826;49.784;9.934;2023-01-08T12:26:17;9.70;1.00
15450;DHT22;7826;49.784;9.934;2023-01-08T12:31:45;9.80;1.00
15450;DHT22;7826;49.784;9.934;2023-01-08T12:36:53;9.90;1.00
15450;DHT22;7826;49.784;9.934;2023-01-08T12:39:31;9.90;1.00
15450;DHT22;7826;49.784;9.934;2023-01-08T12:42:12;9.90;1.00
15450;DHT22;7826;49.784;9.934;2023-01-08T12:44:39;9.90;1.00
15450;DHT22;7826;49.784;9.934;2023-01-08T12:47:06;10.00;1.00
15450;DHT22;7826;49.784;9.934;2023-01-08T12:49:48;10.10;1.00
15450;DHT22;7826;49.784;9.934;2023-01-08T12:52:51;10.20;1.00
15450;DHT22;7826;49.784;9.934;2023-01-08T12:55:34;10.20;1.00
15450;DHT22;7826;49.784;9.934;2023-01-08T12:58:20;10.20;1.00
15450;DHT22;7826;49.784;9.934;2023-01-08T13:03:42;10.20;1.00
15450;DHT22;7826;49.784;9.934;2023-01-08T13:06:17;10.10;1.00
15450;DHT22;7826;49.784;9.934;2023-01-08T13:08:48;10.10;99.90
15450;DHT22;7826;49.784;9.934;2023-01-08T13:11:35;10.10;99.90
15450;DHT22;7826;49.784;9.934;2023-01-08T13:14:08;10.10;99.90
15450;DHT22;7826;49.784;9.934;2023-01-08T13:16:44;10.20;99.90
15450;DHT22;7826;49.784;9.934;2023-01-08T13:19:30;10.20;99.90
15450;DHT22;7826;49.784;9.934;2023-01-08T13:21:59;10.30;99.90
15450;DHT22;7826;49.784;9.934;2023-01-08T13:24:39;10.30;99.90
15450;DHT22;7826;49.784;9.934;2023-01-08T13:29:40;10.30;99.90
15450;DHT22;7826;49.784;9.934;2023-01-08T13:32:46;10.30;99.90
15450;DHT22;7826;49.784;9.934;2023-01-08T13:37:45;10.20;99.90
15450;DHT22;7826;49.784;9.934;2023-01-08T13:48:25;10.00;99.90
15450;DHT22;7826;49.784;9.934;2023-01-08T13:50:52;10.00;99.90
15450;DHT22;7826;49.784;9.934;2023-01-08T13:53:19;10.00;99.90
15450;DHT22;7826;49.784;9.934;2023-01-08T13:56:00;10.00;99.90
15450;DHT22;7826;49.784;9.934;2023-01-08T13:59:00;10.00;99.90
15450;DHT22;7826;49.784;9.934;2023-01-08T14:01:26;10.00;99.90
15450;DHT22;7826;49.784;9.934;2023-01-08T14:03:52;9.90;99.90
15450;DHT22;7826;49.784;9.934;2023-01-08T14:06:23;9.90;99.90
15450;DHT22;7826;49.784;9.934;2023-01-08T14:08:55;9.90;99.90
15450;DHT22;7826;49.784;9.934;2023-01-08T14:13:56;9.90;99.90
15450;DHT22;7826;49.784;9.934;2023-01-08T14:16:23;9.80;99.90
15450;DHT22;7826;49.784;9.934;2023-01-08T14:18:50;9.80;99.90
15450;DHT22;7826;49.784;9.934;2023-01-08T14:21:21;9.80;99.90
15450;DHT22;7826;49.784;9.934;2023-01-08T14:23:49;9.70;99.90
15450;DHT22;7826;49.784;9.934;2023-01-08T14:26:37;9.70;99.90
15450;DHT22;7826;49.784;9.934;2023-01-08T14:29:14;9.70;99.90
15450;DHT22;7826;49.784;9.934;2023-01-08T14:31:49;9.60;99.90
15450;DHT22;7826;49.784;9.934;2023-01-08T14:34:17;9.60;99.90
15450;DHT22;7826;49.784;9.934;2023-01-08T14:36:45;9.60;99.90
15450;DHT22;7826;49.784;9.934;2023-01-08T14:41:52;9.50;99.90
15450;DHT22;7826;49.784;9.934;2023-01-08T14:44:39;9.50;99.90
15450;DHT22;7826;49.784;9.934;2023-01-08T14:47:15;9.50;99.90
15450;DHT22;7826;49.784;9.934;2023-01-08T14:49:46;9.50;99.90
15450;DHT22;7826;49.784;9.934;2023-01-08T14:52:14;9.50;99.90
15450;DHT22;7826;49.784;9.934;2023-01-08T14:54:45;9.50;99.90
15450;DHT22;7826;49.784;9.934;2023-01-08T14:57:12;9.50;99.90
15450;DHT22;7826;49.784;9.934;2023-01-08T14:59:39;9.50;99.90
15450;DHT22;7826;49.784;9.934;2023-01-08T15:02:24;9.40;99.90
15450;DHT22;7826;49.784;9.934;2023-01-08T15:05:03;9.40;99.90
15450;DHT22;7826;49.784;9.934;2023-01-08T15:07:30;9.40;99.90
15450;DHT22;7826;49.784;9.934;2023-01-08T15:09:58;9.30;99.90
15450;DHT22;7826;49.784;9.934;2023-01-08T15:12:28;9.30;99.90
15450;DHT22;7826;49.784;9.934;2023-01-08T15:15:08;9.30;99.90
15450;DHT22;7826;49.784;9.934;2023-01-08T15:17:35;9.30;99.90
15450;DHT22;7826;49.784;9.934;2023-01-08T15:20:01;9.30;99.90
15450;DHT22;7826;49.784;9.934;2023-01-08T15:22:29;9.20;99.90
15450;DHT22;7826;49.784;9.934;2023-01-08T15:24:56;9.20;99.90
15450;DHT22;7826;49.784;9.934;2023-01-08T15:27:24;9.20;99.90
15450;DHT22;7826;49.784;9.934;2023-01-08T15:29:53;9.10;99.90
15450;DHT22;7826;49.784;9.934;2023-01-08T15:32:30;9.10;99.90
15450;DHT22;7826;49.784;9.934;2023-01-08T15:34:59;9.00;99.90
15450;DHT22;7826;49.784;9.934;2023-01-08T15:37:26;9.00;99.90
15450;DHT22;7826;49.784;9.934;2023-01-08T15:39:53;8.90;99.90
15450;DHT22;7826;49.784;9.934;2023-01-08T15:42:23;8.90;1.00
15450;DHT22;7826;49.784;9.934;2023-01-08T15:45:19;8.90;1.00
15450;DHT22;7826;49.784;9.934;2023-01-08T15:47:46;8.80;1.00
15450;DHT22;7826;49.784;9.934;2023-01-08T15:50:13;8.80;1.00
15450;DHT22;7826;49.784;9.934;2023-01-08T15:52:41;8.80;1.00
15450;DHT22;7826;49.784;9.934;2023-01-08T15:55:22;8.80;1.00
15450;DHT22;7826;49.784;9.934;2023-01-08T15:57:49;8.70;1.00
15450;DHT22;7826;49.784;9.934;2023-01-08T16:00:17;8.70;1.00
15450;DHT22;7826;49.784;9.934;2023-01-08T16:02:51;8.70;1.00
15450;DHT22;7826;49.784;9.934;2023-01-08T16:05:19;8.60;1.00
15450;DHT22;7826;49.784;9.934;2023-01-08T16:07:46;8.40;1.00
15450;DHT22;7826;49.784;9.934;2023-01-08T16:10:14;8.50;1.00
15450;DHT22;7826;49.784;9.934;2023-01-08T16:12:40;8.50;1.00
15450;DHT22;7826;49.784;9.934;2023-01-08T16:15:09;8.50;1.00
15450;DHT22;7826;49.784;9.934;2023-01-08T16:17:36;8.50;1.00
15450;DHT22;7826;49.784;9.934;2023-01-08T16:20:03;8.40;1.00
15450;DHT22;7826;49.784;9.934;2023-01-08T16:22:30;8.40;1.00
15450;DHT22;7826;49.784;9.934;2023-01-08T16:24:56;8.40;1.00
15450;DHT22;7826;49.784;9.934;2023-01-08T16:27:22;8.40;1.00
15450;DHT22;7826;49.784;9.934;2023-01-08T16:29:49;8.40;1.00
15450;DHT22;7826;49.784;9.934;2023-01-08T16:32:16;8.40;1.00
15450;DHT22;7826;49.784;9.934;2023-01-08T16:34:42;8.40;1.00
15450;DHT22;7826;49.784;9.934;2023-01-08T16:37:08;8.30;1.00
15450;DHT22;7826;49.784;9.934;2023-01-08T16:39:35;8.30;1.00
15450;DHT22;7826;49.784;9.934;2023-01-08T16:42:01;8.30;1.00
15450;DHT22;7826;49.784;9.934;2023-01-08T16:44:27;8.30;1.00
15450;DHT22;7826;49.784;9.934;2023-01-08T16:46:54;8.30;1.00
15450;DHT22;7826;49.784;9.934;2023-01-08T16:49:21;8.30;1.00
15450;DHT22;7826;49.784;9.934;2023-01-08T16:51:47;8.30;1.00
15450;DHT22;7826;49.784;9.934;2023-01-08T16:54:15;8.20;1.00
15450;DHT22;7826;49.784;9.934;2023-01-08T16:56:42;8.20;1.00
15450;DHT22;7826;49.784;9.934;2023-01-08T16:59:09;8.30;1.00
15450;DHT22;7826;49.784;9.934;2023-01-08T17:01:36;8.20;1.00
15450;DHT22;7826;49.784;9.934;2023-01-08T17:04:02;8.30;1.00
15450;DHT22;7826;49.784;9.934;2023-01-08T17:06:29;8.30;1.00
15450;DHT22;7826;49.784;9.934;2023-01-08T17:08:59;8.20;1.00
15450;DHT22;7826;49.784;9.934;2023-01-08T17:11:25;8.20;1.00
15450;DHT22;7826;49.784;9.934;2023-01-08T17:13:52;8.20;1.00
15450;DHT22;7826;49.784;9.934;2023-01-08T17:16:18;8.20;1.00
15450;DHT22;7826;49.784;9.934;2023-01-08T17:18:45;8.20;1.00
15450;DHT22;7826;49.784;9.934;2023-01-08T17:21:12;8.20;1.00
15450;DHT22;7826;49.784;9.934;2023-01-08T17:23:39;8.20;1.00
15450;DHT22;7826;49.784;9.934;2023-01-08T17:26:08;8.10;1.00
15450;DHT22;7826;49.784;9.934;2023-01-08T17:28:35;8.10;1.00
15450;DHT22;7826;49.784;9.934;2023-01-08T17:31:10;8.10;1.00
15450;DHT22;7826;49.784;9.934;2023-01-08T17:33:37;8.10;1.00
15450;DHT22;7826;49.784;9.934;2023-01-08T17:36:16;8.10;1.00
15450;DHT22;7826;49.784;9.934;2023-01-08T17:38:43;8.00;1.00
15450;DHT22;7826;49.784;9.934;2023-01-08T17:41:12;8.00;1.00
15450;DHT22;7826;49.784;9.934;2023-01-08T17:44:02;8.00;1.00